Página principal
METAR-TAF:

METAR-TAF

Aeroportos :

Salamanca, Espanha

latitude: 40-57N, longitude: 005-30W, altura: 793 m

Observação actual do tempo

O boletim foi feito há 30 minutos, às 14:00 UTC
Vento 8 kt de nordeste, variando entre norte e este
Temperatura 29°C
Humidade 19%
Pressão 1027 hPa
Visibilidade 10 km ou mais
sem nuvens abaixo de 1500 metros e sem cumulonimbus

METAR: LESA 071400Z 05008KT 350V100 CAVOK 29/03 Q1027

Hora: 16:30 (14:30 UTC)

Previsão

O boletim foi feito há 6 horas e 30 minutos, às 08:00 UTC
Previsão válida de 07 às 09 UTC a 08 às 09 UTC
Vento 9 kt de es-nordeste
Visibilidade 10 km ou mais
sem nuvens abaixo de 1500 metros e sem cumulonimbus

TAF: LESA 070800Z 0709/0809 06009KT CAVOK TX32/0716Z TN12/0805Z

Observações e previsões do tempo de mais de 4000 aeroportos (mensagens METAR e TAF).

As estações disponíveis são os pontos amarelos e vermelhos sobre o mapa.

Mova o rato sobre o mapa para ver o nome da estação.

Depois clique no ponto para visualizar as observações e previsões meteorológicas.

Para alterar o mapa : clique nos botões verdes com uma cruz preta para aumentar o zoom; no botão verde com uma pitada de zoom; ou nas setas verdes para mapas adjacentes.


METAR-TAF: